createdAt,value
2023-01-20T00:01:49.321Z,100182.67
2023-01-20T00:04:19.638Z,100183.44
2023-01-20T00:06:48.708Z,100177.40
2023-01-20T00:09:19.165Z,100178.31
2023-01-20T00:11:48.068Z,100182.65
2023-01-20T00:14:17.023Z,100189.02
2023-01-20T00:16:46.036Z,100195.27
2023-01-20T00:19:15.576Z,100196.69
2023-01-20T00:21:44.544Z,100199.10
2023-01-20T00:24:13.333Z,100205.23
2023-01-20T00:26:42.410Z,100209.60
2023-01-20T00:29:11.421Z,100214.98
2023-01-20T00:31:40.544Z,100221.94
2023-01-20T00:34:11.773Z,100225.73
2023-01-20T00:36:40.635Z,100225.74
2023-01-20T00:39:09.732Z,100232.21
2023-01-20T00:41:38.823Z,100236.59
2023-01-20T00:44:08.567Z,100238.63
2023-01-20T00:46:37.896Z,100232.83
2023-01-20T00:49:06.842Z,100231.74
2023-01-20T00:51:35.834Z,100233.80
2023-01-20T00:54:05.228Z,100229.35
2023-01-20T00:56:34.147Z,100222.56
2023-01-20T00:59:03.112Z,100220.66
2023-01-20T01:01:32.241Z,100219.67
2023-01-20T01:04:01.414Z,100220.34
2023-01-20T01:06:30.269Z,100214.18
2023-01-20T01:08:59.198Z,100215.18
2023-01-20T01:11:28.189Z,100211.49
2023-01-20T01:13:57.900Z,100209.63
2023-01-20T01:16:26.868Z,100209.34
2023-01-20T01:18:56.084Z,100207.48
2023-01-20T01:21:24.981Z,100207.53
2023-01-20T01:23:54.191Z,100208.92
2023-01-20T01:26:23.386Z,100201.59
2023-01-20T01:28:52.478Z,100202.09
2023-01-20T01:31:22.528Z,100202.83
2023-01-20T01:33:51.596Z,100207.16
2023-01-20T01:36:20.506Z,100207.52
2023-01-20T01:38:57.894Z,100200.11
2023-01-20T01:41:28.410Z,100204.40
2023-01-20T01:44:12.234Z,100201.89
2023-01-20T01:46:42.949Z,100206.33
2023-01-20T01:49:29.407Z,100211.98
2023-01-20T01:52:09.885Z,100216.46
2023-01-20T01:54:46.014Z,100212.82
2023-01-20T01:57:15.199Z,100207.54
2023-01-20T01:59:44.503Z,100203.94
2023-01-20T02:02:13.427Z,100201.09
2023-01-20T02:04:44.132Z,100206.73
2023-01-20T02:07:16.825Z,100214.36
2023-01-20T02:09:45.809Z,100214.17
2023-01-20T02:12:20.235Z,100210.02
2023-01-20T02:14:58.538Z,100211.27
2023-01-20T02:18:01.637Z,100213.80
2023-01-20T02:21:19.699Z,100217.33
2023-01-20T02:24:13.252Z,100215.44
2023-01-20T02:27:11.634Z,100207.21
2023-01-20T02:30:35.108Z,100207.69
2023-01-20T02:33:16.176Z,100209.46
2023-01-20T02:35:57.062Z,100200.40
2023-01-20T02:38:45.304Z,100193.52
2023-01-20T02:41:43.882Z,100186.64
2023-01-20T02:44:33.662Z,100182.94
2023-01-20T02:47:52.595Z,100193.79
2023-01-20T02:50:44.059Z,100204.57
2023-01-20T02:53:14.898Z,100209.20
2023-01-20T02:55:53.753Z,100203.07
2023-01-20T02:58:34.070Z,100195.81
2023-01-20T03:01:13.093Z,100200.20
2023-01-20T03:03:46.884Z,100198.05
2023-01-20T03:06:23.072Z,100194.50
2023-01-20T03:08:53.841Z,100195.61
2023-01-20T03:11:23.161Z,100199.60
2023-01-20T03:14:01.865Z,100203.95
2023-01-20T03:16:31.255Z,100200.97
2023-01-20T03:19:00.959Z,100193.36
2023-01-20T03:21:30.059Z,100194.74
2023-01-20T03:24:03.581Z,100200.10
2023-01-20T03:26:34.093Z,100203.02
2023-01-20T03:29:09.489Z,100203.52
2023-01-20T03:31:48.577Z,100207.05
2023-01-20T03:34:22.329Z,100204.92
2023-01-20T03:36:53.886Z,100200.75
2023-01-20T03:39:24.949Z,100208.14
2023-01-20T03:42:25.557Z,100213.94
2023-01-20T03:45:08.625Z,100209.30
2023-01-20T03:47:46.411Z,100203.69
2023-01-20T03:50:50.633Z,100203.04
2023-01-20T03:53:42.254Z,100203.61
2023-01-20T03:56:22.007Z,100207.98
2023-01-20T03:58:54.498Z,100210.87
2023-01-20T04:01:32.499Z,100211.80
2023-01-20T04:04:03.804Z,100208.15
2023-01-20T04:06:35.343Z,100211.34
2023-01-20T04:09:13.098Z,100218.13
2023-01-20T04:11:42.180Z,100215.31
2023-01-20T04:14:11.490Z,100217.70
2023-01-20T04:16:40.481Z,100216.94
2023-01-20T04:19:09.385Z,100209.33
2023-01-20T04:22:19.014Z,100211.63
2023-01-20T04:25:08.700Z,100217.96
2023-01-20T04:27:37.582Z,100220.58
2023-01-20T04:30:08.215Z,100221.02
2023-01-20T04:32:37.002Z,100218.31
2023-01-20T04:35:06.249Z,100224.87
2023-01-20T04:37:35.206Z,100226.65
2023-01-20T04:40:05.311Z,100222.40
2023-01-20T04:42:34.215Z,100216.84
2023-01-20T04:45:04.709Z,100222.21
2023-01-20T04:47:34.141Z,100229.16
2023-01-20T04:50:03.038Z,100241.89
2023-01-20T04:52:32.137Z,100245.30
2023-01-20T04:55:01.120Z,100245.86
2023-01-20T04:57:30.318Z,100248.64
2023-01-20T04:59:59.413Z,100243.36
2023-01-20T05:02:28.286Z,100233.80
2023-01-20T05:04:57.313Z,100231.62
2023-01-20T05:07:26.075Z,100230.31
2023-01-20T05:09:54.886Z,100224.98
2023-01-20T05:12:23.903Z,100229.98
2023-01-20T05:14:53.080Z,100235.63
2023-01-20T05:17:22.099Z,100233.30
2023-01-20T05:19:51.550Z,100224.20
2023-01-20T05:22:20.325Z,100220.23
2023-01-20T05:24:49.011Z,100215.58
2023-01-20T05:27:17.885Z,100215.31
2023-01-20T05:29:46.765Z,100204.17
2023-01-20T05:32:15.484Z,100205.34
2023-01-20T05:34:44.292Z,100209.79
2023-01-20T05:37:13.129Z,100215.02
2023-01-20T05:39:41.929Z,100213.83
2023-01-20T05:42:10.805Z,100212.18
2023-01-20T05:44:39.700Z,100212.83
2023-01-20T05:47:08.558Z,100208.33
2023-01-20T05:49:37.288Z,100198.80
2023-01-20T05:52:06.032Z,100206.80
2023-01-20T05:54:34.819Z,100216.73
2023-01-20T05:57:05.622Z,100226.09
2023-01-20T05:59:34.436Z,100229.52
2023-01-20T06:02:03.596Z,100226.37
2023-01-20T06:04:32.388Z,100229.83
2023-01-20T06:07:01.255Z,100236.52
2023-01-20T06:09:30.001Z,100233.89
2023-01-20T06:11:58.723Z,100239.52
2023-01-20T06:14:27.493Z,100236.46
2023-01-20T06:16:56.320Z,100235.58
2023-01-20T06:19:26.582Z,100234.62
2023-01-20T06:21:55.358Z,100242.77
2023-01-20T06:24:24.184Z,100240.31
2023-01-20T06:26:53.305Z,100242.37
2023-01-20T06:29:22.457Z,100240.56
2023-01-20T06:31:51.291Z,100242.45
2023-01-20T06:34:20.041Z,100234.60
2023-01-20T06:36:48.775Z,100238.52
2023-01-20T06:39:17.485Z,100244.08
2023-01-20T06:41:46.639Z,100246.36
2023-01-20T06:44:15.830Z,100250.79
2023-01-20T06:46:46.708Z,100245.34
2023-01-20T06:49:16.979Z,100244.82
2023-01-20T06:51:48.144Z,100245.50
2023-01-20T06:54:17.338Z,100250.92
2023-01-20T06:56:46.445Z,100259.98
2023-01-20T06:59:15.212Z,100261.14
2023-01-20T07:01:44.089Z,100262.20
2023-01-20T07:04:14.709Z,100259.33
2023-01-20T07:06:43.627Z,100258.96
2023-01-20T07:09:13.879Z,100252.23
2023-01-20T07:11:42.629Z,100249.77
2023-01-20T07:14:11.481Z,100242.05
2023-01-20T07:16:40.560Z,100238.27
2023-01-20T07:19:09.537Z,100236.19
2023-01-20T07:21:38.904Z,100238.89
2023-01-20T07:24:10.260Z,100245.97
2023-01-20T07:26:39.239Z,100248.23
2023-01-20T07:29:08.246Z,100255.33
2023-01-20T07:31:37.562Z,100260.49
2023-01-20T07:34:06.410Z,100256.79
2023-01-20T07:36:35.396Z,100260.20
2023-01-20T07:39:04.440Z,100260.93
2023-01-20T07:41:33.614Z,100268.71
2023-01-20T07:44:03.487Z,100272.52
2023-01-20T07:46:32.595Z,100273.51
2023-01-20T07:49:01.547Z,100275.95
2023-01-20T07:51:30.523Z,100274.90
2023-01-20T07:53:59.540Z,100279.71
2023-01-20T07:56:29.915Z,100276.15
2023-01-20T07:58:59.040Z,100277.40
2023-01-20T08:01:31.090Z,100281.47
2023-01-20T08:04:00.858Z,100285.73
2023-01-20T08:06:30.757Z,100278.70
2023-01-20T08:09:03.414Z,100302.27
2023-01-20T08:11:35.535Z,100307.86
2023-01-20T08:14:05.233Z,100302.84
2023-01-20T08:16:34.296Z,100301.90
2023-01-20T08:19:03.406Z,100304.52
2023-01-20T08:21:33.156Z,100310.38
2023-01-20T08:24:06.843Z,100311.77
2023-01-20T08:26:36.043Z,100313.21
2023-01-20T08:29:08.990Z,100312.86
2023-01-20T08:31:38.544Z,100308.54
2023-01-20T08:34:07.742Z,100312.11
2023-01-20T08:36:40.103Z,100311.34
2023-01-20T08:39:14.932Z,100311.54
2023-01-20T08:41:45.201Z,100306.85
2023-01-20T08:44:15.413Z,100307.91
2023-01-20T08:46:45.618Z,100310.11
2023-01-20T08:49:17.830Z,100319.44
2023-01-20T08:51:46.758Z,100322.66
2023-01-20T08:54:16.090Z,100328.13
2023-01-20T08:56:45.027Z,100321.90
2023-01-20T08:59:14.064Z,100312.73
2023-01-20T09:01:44.081Z,100308.73
2023-01-20T09:04:13.156Z,100309.34
2023-01-20T09:06:50.472Z,100305.33
2023-01-20T09:09:22.559Z,100307.80
2023-01-20T09:11:51.608Z,100307.50
2023-01-20T09:14:24.468Z,100306.91
2023-01-20T09:16:53.500Z,100307.41
2023-01-20T09:19:22.588Z,100305.42
2023-01-20T09:21:52.415Z,100309.84
2023-01-20T09:24:21.602Z,100303.80
2023-01-20T09:26:50.809Z,100304.46
2023-01-20T09:29:21.258Z,100296.95
2023-01-20T09:31:50.936Z,100295.35
2023-01-20T09:34:24.861Z,100297.98
2023-01-20T09:37:19.815Z,100298.55
2023-01-20T09:40:08.251Z,100297.17
2023-01-20T09:43:46.331Z,100291.61
2023-01-20T09:47:07.569Z,100278.70
2023-01-20T09:50:41.712Z,100272.67
2023-01-20T09:53:33.062Z,100266.05
2023-01-20T09:56:16.765Z,100258.29
2023-01-20T09:58:57.520Z,100251.08
2023-01-20T10:01:45.583Z,100253.02
2023-01-20T10:04:59.405Z,100257.52
2023-01-20T10:07:45.159Z,100251.79
2023-01-20T10:10:25.515Z,100247.90
2023-01-20T10:13:26.906Z,100247.17
2023-01-20T10:15:57.519Z,100246.64
2023-01-20T10:19:13.295Z,100242.14
2023-01-20T10:21:54.216Z,100242.88
2023-01-20T10:24:41.573Z,100238.34
2023-01-20T10:27:10.346Z,100240.23
2023-01-20T10:29:54.421Z,100237.73
2023-01-20T10:32:38.810Z,100235.97
2023-01-20T10:35:24.657Z,100227.71
2023-01-20T10:37:55.980Z,100228.13
2023-01-20T10:41:16.705Z,100226.73
2023-01-20T10:43:48.441Z,100217.40
2023-01-20T10:46:43.269Z,100210.60
2023-01-20T10:49:52.824Z,100202.67
2023-01-20T10:53:02.676Z,100195.60
2023-01-20T10:55:41.645Z,100195.00
2023-01-20T10:58:45.569Z,100180.84
2023-01-20T11:01:19.232Z,100180.95
2023-01-20T11:03:49.619Z,100180.21
2023-01-20T11:06:27.487Z,100179.27
2023-01-20T11:08:57.378Z,100179.91
2023-01-20T11:11:27.002Z,100174.56
2023-01-20T11:13:57.779Z,100177.40
2023-01-20T11:16:31.800Z,100179.17
2023-01-20T11:19:07.739Z,100182.14
2023-01-20T11:21:38.119Z,100179.56
2023-01-20T11:24:36.059Z,100178.86
2023-01-20T11:27:11.312Z,100178.65
2023-01-20T11:29:47.234Z,100179.98
2023-01-20T11:32:37.967Z,100178.70
2023-01-20T11:35:26.427Z,100170.91
2023-01-20T11:37:55.333Z,100164.13
2023-01-20T11:40:28.194Z,100162.53
2023-01-20T11:42:56.743Z,100166.55
2023-01-20T11:45:35.762Z,100154.21
2023-01-20T11:48:16.069Z,100158.42
2023-01-20T11:51:01.582Z,100156.44
2023-01-20T11:53:33.385Z,100155.67
2023-01-20T11:56:26.643Z,100151.20
2023-01-20T11:59:03.823Z,100147.05
2023-01-20T12:01:58.258Z,100142.54
2023-01-20T12:04:32.798Z,100132.73
2023-01-20T12:07:11.481Z,100133.80
2023-01-20T12:09:54.657Z,100129.05
2023-01-20T12:12:38.745Z,100126.20
2023-01-20T12:15:22.785Z,100127.13
2023-01-20T12:18:09.714Z,100119.25
2023-01-20T12:21:01.999Z,100112.48
2023-01-20T12:23:50.654Z,100109.42
2023-01-20T12:26:22.384Z,100102.61
2023-01-20T12:29:23.959Z,100100.52
2023-01-20T12:31:54.722Z,100101.89
2023-01-20T12:34:32.981Z,100100.23
2023-01-20T12:37:10.270Z,100103.80
2023-01-20T12:40:11.455Z,100105.88
2023-01-20T12:43:27.458Z,100108.92
2023-01-20T12:46:11.417Z,100113.36
2023-01-20T12:48:55.834Z,100108.98
2023-01-20T12:51:52.630Z,100111.08
2023-01-20T12:54:47.384Z,100115.13
2023-01-20T12:57:53.137Z,100112.54
2023-01-20T13:01:23.543Z,100111.21
2023-01-20T13:04:56.886Z,100118.34
2023-01-20T13:08:08.846Z,100115.29
2023-01-20T13:11:19.132Z,100112.72
2023-01-20T13:14:21.913Z,100116.59
2023-01-20T13:17:15.049Z,100123.40
2023-01-20T13:19:49.652Z,100127.95
2023-01-20T13:22:21.816Z,100124.09
2023-01-20T13:24:57.513Z,100126.95
2023-01-20T13:27:36.104Z,100127.92
2023-01-20T13:30:10.338Z,100124.61
2023-01-20T13:32:48.574Z,100123.77
2023-01-20T13:35:25.847Z,100122.29
2023-01-20T13:38:03.068Z,100115.41
2023-01-20T13:40:37.788Z,100113.39
2023-01-20T13:43:25.883Z,100111.40
2023-01-20T13:46:03.867Z,100112.86
2023-01-20T13:48:35.720Z,100108.98
2023-01-20T13:51:19.582Z,100108.73
2023-01-20T13:53:48.686Z,100106.97
2023-01-20T13:56:45.210Z,100105.93
2023-01-20T13:59:14.154Z,100107.17
2023-01-20T14:01:43.249Z,100108.16
2023-01-20T14:04:20.570Z,100112.34
2023-01-20T14:06:52.878Z,100111.87
2023-01-20T14:09:26.851Z,100108.35
2023-01-20T14:11:58.212Z,100106.48
2023-01-20T14:14:27.693Z,100103.76
2023-01-20T14:16:56.992Z,100113.67
2023-01-20T14:19:35.374Z,100110.83
2023-01-20T14:22:27.918Z,100116.60
2023-01-20T14:25:00.287Z,100115.38
2023-01-20T14:27:35.572Z,100118.25
2023-01-20T14:30:25.950Z,100128.12
2023-01-20T14:32:54.873Z,100136.54
2023-01-20T14:35:31.683Z,100138.02
2023-01-20T14:38:02.390Z,100139.59
2023-01-20T14:40:35.777Z,100136.63
2023-01-20T14:43:22.093Z,100135.98
2023-01-20T14:45:52.951Z,100129.65
2023-01-20T14:48:34.027Z,100131.89
2023-01-20T14:51:06.063Z,100131.80
2023-01-20T14:53:35.066Z,100136.11
2023-01-20T14:56:08.037Z,100141.24
2023-01-20T14:58:44.220Z,100146.48
2023-01-20T15:01:25.490Z,100144.17
2023-01-20T15:04:01.062Z,100147.00
2023-01-20T15:06:30.116Z,100149.27
2023-01-20T15:09:06.707Z,100154.59
2023-01-20T15:11:36.741Z,100157.61
2023-01-20T15:14:09.229Z,100156.18
2023-01-20T15:16:43.364Z,100158.84
2023-01-20T15:19:20.038Z,100156.15
2023-01-20T15:21:58.332Z,100163.59
2023-01-20T15:24:41.803Z,100165.00
2023-01-20T15:27:33.875Z,100167.73
2023-01-20T15:30:21.710Z,100169.89
2023-01-20T15:32:52.331Z,100175.49
2023-01-20T15:35:26.262Z,100181.98
2023-01-20T15:37:55.582Z,100183.30
2023-01-20T15:40:25.555Z,100185.15
2023-01-20T15:42:57.188Z,100173.60
2023-01-20T15:45:26.696Z,100172.76
2023-01-20T15:47:56.471Z,100169.86
2023-01-20T15:50:26.919Z,100169.66
2023-01-20T15:52:55.744Z,100171.33
2023-01-20T15:55:24.511Z,100175.23
2023-01-20T15:57:53.444Z,100182.86
2023-01-20T16:00:24.492Z,100184.36
2023-01-20T16:02:53.648Z,100187.21
2023-01-20T16:05:22.726Z,100183.09
2023-01-20T16:07:51.580Z,100185.35
2023-01-20T16:10:20.380Z,100184.31
2023-01-20T16:12:49.937Z,100183.67
2023-01-20T16:15:19.126Z,100187.77
2023-01-20T16:17:47.940Z,100193.20
2023-01-20T16:20:23.438Z,100197.27
2023-01-20T16:22:53.153Z,100191.92
2023-01-20T16:25:21.985Z,100193.17
2023-01-20T16:27:51.146Z,100194.03
2023-01-20T16:30:22.412Z,100193.85
2023-01-20T16:32:51.849Z,100190.27
2023-01-20T16:35:23.822Z,100199.45
2023-01-20T16:37:53.058Z,100201.34
2023-01-20T16:40:22.437Z,100204.80
2023-01-20T16:42:56.178Z,100201.11
2023-01-20T16:45:29.076Z,100200.80
2023-01-20T16:47:58.046Z,100206.91
2023-01-20T16:50:28.628Z,100206.65
2023-01-20T16:52:57.615Z,100207.42
2023-01-20T16:55:26.542Z,100207.44
2023-01-20T16:57:55.449Z,100204.04
2023-01-20T17:00:24.260Z,100204.20
2023-01-20T17:02:53.907Z,100200.16
2023-01-20T17:05:22.975Z,100194.70
2023-01-20T17:07:54.407Z,100186.38
2023-01-20T17:10:24.605Z,100184.77
2023-01-20T17:12:54.475Z,100184.48
2023-01-20T17:15:24.723Z,100185.16
2023-01-20T17:17:58.442Z,100183.02
2023-01-20T17:20:27.879Z,100179.79
2023-01-20T17:22:57.301Z,100176.01
2023-01-20T17:25:26.305Z,100176.25
2023-01-20T17:27:55.279Z,100175.27
2023-01-20T17:30:26.305Z,100178.80
2023-01-20T17:32:55.945Z,100178.66
2023-01-20T17:35:24.959Z,100174.94
2023-01-20T17:37:54.006Z,100172.92
2023-01-20T17:40:23.075Z,100171.64
2023-01-20T17:42:54.904Z,100166.11
2023-01-20T17:45:24.481Z,100164.58
2023-01-20T17:47:53.771Z,100161.75
2023-01-20T17:50:22.888Z,100161.37
2023-01-20T17:52:51.776Z,100172.84
2023-01-20T17:55:20.672Z,100183.09
2023-01-20T17:57:52.669Z,100191.56
2023-01-20T18:00:22.131Z,100189.20
2023-01-20T18:02:51.109Z,100184.92
2023-01-20T18:05:20.231Z,100184.58
2023-01-20T18:07:52.009Z,100194.13
2023-01-20T18:10:20.764Z,100191.30
2023-01-20T18:12:49.519Z,100198.42
2023-01-20T18:15:18.538Z,100206.63
2023-01-20T18:17:47.606Z,100210.96
2023-01-20T18:20:18.312Z,100206.15
2023-01-20T18:22:50.496Z,100213.94
2023-01-20T18:25:19.333Z,100215.39
2023-01-20T18:27:48.281Z,100224.48
2023-01-20T18:30:18.032Z,100212.52
2023-01-20T18:32:47.022Z,100199.48
2023-01-20T18:35:15.920Z,100202.92
2023-01-20T18:37:44.918Z,100215.89
2023-01-20T18:40:16.645Z,100210.86
2023-01-20T18:42:51.812Z,100204.35
2023-01-20T18:45:21.118Z,100212.29
2023-01-20T18:47:50.740Z,100213.45
2023-01-20T18:50:20.331Z,100207.25
2023-01-20T18:52:49.425Z,100206.31
2023-01-20T18:55:18.331Z,100206.77
2023-01-20T19:04:12.459Z,100208.98
2023-01-20T19:07:21.528Z,100202.04
2023-01-20T19:09:49.234Z,100203.80
2023-01-20T19:12:17.052Z,100196.09
2023-01-20T19:14:44.608Z,100202.05
2023-01-20T19:17:12.976Z,100199.86
2023-01-20T19:19:45.613Z,100204.48
2023-01-20T19:22:13.294Z,100212.58
2023-01-20T19:24:40.936Z,100216.66
2023-01-20T19:27:08.516Z,100210.56
2023-01-20T19:29:35.844Z,100209.08
2023-01-20T19:32:04.018Z,100210.52
2023-01-20T19:34:38.747Z,100215.58
2023-01-20T19:37:07.573Z,100211.28
2023-01-20T19:39:36.546Z,100212.17
2023-01-20T19:42:04.213Z,100207.84
2023-01-20T19:44:31.986Z,100212.33
2023-01-20T19:47:03.687Z,100216.65
2023-01-20T19:49:31.182Z,100215.39
2023-01-20T19:51:59.505Z,100214.76
2023-01-20T19:54:28.953Z,100220.20
2023-01-20T19:57:00.840Z,100221.91
2023-01-20T19:59:29.689Z,100219.40
2023-01-20T20:01:57.636Z,100215.89
2023-01-20T20:04:27.494Z,100217.11
2023-01-20T20:06:55.181Z,100199.84
2023-01-20T20:09:25.605Z,100216.50
2023-01-20T20:11:53.685Z,100217.11
2023-01-20T20:14:26.827Z,100216.96
2023-01-20T20:16:54.127Z,100219.14
2023-01-20T20:19:21.969Z,100217.65
2023-01-20T20:21:58.753Z,100217.06
2023-01-20T20:24:26.399Z,100214.96
2023-01-20T20:26:57.133Z,100209.92
2023-01-20T20:29:24.717Z,100208.64
2023-01-20T20:31:52.631Z,100211.89
2023-01-20T20:34:20.160Z,100215.45
2023-01-20T20:36:47.935Z,100220.58
2023-01-20T20:39:17.819Z,100220.52
2023-01-20T20:41:47.139Z,100224.09
2023-01-20T20:44:17.882Z,100227.15
2023-01-20T20:46:45.898Z,100229.83
2023-01-20T20:49:18.561Z,100224.02
2023-01-20T20:51:47.312Z,100227.32
2023-01-20T20:54:16.639Z,100229.80
2023-01-20T20:56:58.905Z,100232.77
2023-01-20T20:59:30.899Z,100238.77
2023-01-20T21:01:58.868Z,100233.48
2023-01-20T21:04:26.538Z,100238.16
2023-01-20T21:06:54.079Z,100236.53
2023-01-20T21:09:21.527Z,100238.84
2023-01-20T21:11:49.108Z,100242.69
2023-01-20T21:14:18.584Z,100246.95
2023-01-20T21:16:46.167Z,100248.09
2023-01-20T21:19:13.500Z,100249.25
2023-01-20T21:21:41.311Z,100258.03
2023-01-20T21:24:10.591Z,100269.11
2023-01-20T21:26:38.260Z,100278.04
2023-01-20T21:29:05.917Z,100282.23
2023-01-20T21:31:34.211Z,100286.83
2023-01-20T21:34:01.949Z,100284.33
2023-01-20T21:36:34.090Z,100283.41
2023-01-20T21:39:01.828Z,100291.84
2023-01-20T21:41:29.856Z,100296.61
2023-01-20T21:44:15.952Z,100286.52
2023-01-20T21:46:43.775Z,100277.56
2023-01-20T21:49:30.143Z,100280.15
2023-01-20T21:52:16.018Z,100274.91
2023-01-20T21:54:44.590Z,100274.48
2023-01-20T21:57:12.784Z,100281.26
2023-01-20T21:59:41.053Z,100280.42
2023-01-20T22:02:13.004Z,100266.30
2023-01-20T22:04:41.294Z,100260.49
2023-01-20T22:07:09.985Z,100257.52
2023-01-20T22:09:38.036Z,100249.67
2023-01-20T22:12:06.745Z,100247.31
2023-01-20T22:14:34.389Z,100239.33
2023-01-20T22:17:02.238Z,100232.41
2023-01-20T22:19:29.712Z,100225.31
2023-01-20T22:21:57.994Z,100214.35
2023-01-20T22:24:25.780Z,100213.58
2023-01-20T22:26:53.525Z,100215.23
2023-01-20T22:29:21.704Z,100217.98
2023-01-20T22:31:53.894Z,100212.18
2023-01-20T22:34:21.940Z,100210.66
2023-01-20T22:36:49.495Z,100203.19
2023-01-20T22:39:17.164Z,100198.61
2023-01-20T22:41:44.729Z,100190.79
2023-01-20T22:44:12.391Z,100187.80
2023-01-20T22:46:40.359Z,100186.48
2023-01-20T22:49:09.504Z,100186.95
2023-01-20T22:51:36.861Z,100183.45
2023-01-20T22:54:04.289Z,100179.79
2023-01-20T22:56:32.149Z,100178.33
2023-01-20T22:59:00.659Z,100180.90
2023-01-20T23:01:32.448Z,100173.44
2023-01-20T23:04:04.023Z,100176.39
2023-01-20T23:06:34.943Z,100181.98
2023-01-20T23:09:08.982Z,100187.07
2023-01-20T23:11:37.883Z,100193.02
2023-01-20T23:14:09.173Z,100188.01
2023-01-20T23:16:36.761Z,100190.52
2023-01-20T23:19:05.238Z,100192.55
2023-01-20T23:21:32.733Z,100191.87
2023-01-20T23:24:00.489Z,100187.90
2023-01-20T23:26:30.000Z,100180.48
2023-01-20T23:28:57.961Z,100173.48
2023-01-20T23:31:28.147Z,100176.88
2023-01-20T23:33:55.919Z,100179.88
2023-01-20T23:36:26.008Z,100182.94
2023-01-20T23:38:55.490Z,100183.87
2023-01-20T23:41:23.753Z,100179.51
2023-01-20T23:43:51.830Z,100184.22
2023-01-20T23:46:20.825Z,100185.66
2023-01-20T23:48:48.412Z,100193.29
2023-01-20T23:51:16.450Z,100192.38
2023-01-20T23:53:44.136Z,100189.66
2023-01-20T23:56:21.197Z,100198.61
2023-01-20T23:58:48.956Z,100202.16
